createdAt,value
2023-03-12T00:01:19.021Z,94.70
2023-03-12T00:03:47.763Z,94.90
2023-03-12T00:06:16.637Z,94.80
2023-03-12T00:08:45.376Z,94.70
2023-03-12T00:11:16.776Z,94.70
2023-03-12T00:13:49.724Z,94.70
2023-03-12T00:16:18.371Z,94.70
2023-03-12T00:18:50.385Z,94.80
2023-03-12T00:21:19.805Z,94.80
2023-03-12T00:23:49.184Z,95.10
2023-03-12T00:26:17.978Z,94.80
2023-03-12T00:28:50.367Z,94.70
2023-03-12T00:31:22.042Z,94.80
2023-03-12T00:33:50.824Z,94.70
2023-03-12T00:36:21.360Z,94.80
2023-03-12T00:38:49.708Z,94.90
2023-03-12T00:41:19.687Z,94.80
2023-03-12T00:43:50.419Z,94.80
2023-03-12T00:46:19.329Z,94.90
2023-03-12T00:48:47.938Z,94.80
2023-03-12T00:51:16.678Z,94.90
2023-03-12T00:53:45.134Z,94.90
2023-03-12T00:56:13.775Z,95.00
2023-03-12T00:58:43.410Z,94.90
2023-03-12T01:01:13.666Z,94.90
2023-03-12T01:03:42.317Z,95.00
2023-03-12T01:06:10.857Z,95.00
2023-03-12T01:08:40.075Z,95.00
2023-03-12T01:11:08.500Z,95.00
2023-03-12T01:13:36.861Z,95.00
2023-03-12T01:16:06.401Z,95.00
2023-03-12T01:18:36.288Z,95.10
2023-03-12T01:21:05.630Z,95.00
2023-03-12T01:23:34.735Z,95.00
2023-03-12T01:26:03.087Z,95.30
2023-03-12T01:28:31.608Z,95.10
2023-03-12T01:30:59.959Z,95.10
2023-03-12T01:33:28.277Z,95.10
2023-03-12T01:36:19.867Z,95.30
2023-03-12T01:38:48.492Z,95.40
2023-03-12T01:41:16.868Z,95.30
2023-03-12T01:43:46.929Z,95.10
2023-03-12T01:46:28.124Z,95.20
2023-03-12T01:49:05.872Z,95.30
2023-03-12T01:51:41.221Z,95.30
2023-03-12T01:54:15.969Z,95.50
2023-03-12T01:56:44.856Z,95.40
2023-03-12T01:59:19.021Z,95.30
2023-03-12T02:01:49.789Z,95.30
2023-03-12T02:04:20.832Z,95.30
2023-03-12T02:06:56.120Z,95.30
2023-03-12T02:09:24.750Z,95.40
2023-03-12T02:11:53.177Z,95.30
2023-03-12T02:14:22.201Z,95.30
2023-03-12T02:16:50.844Z,95.40
2023-03-12T02:19:27.242Z,95.40
2023-03-12T02:21:57.658Z,95.50
2023-03-12T02:24:35.285Z,95.50
2023-03-12T02:27:07.206Z,95.80
2023-03-12T02:29:40.599Z,95.50
2023-03-12T02:32:11.212Z,95.50
2023-03-12T02:34:39.548Z,95.50
2023-03-12T02:37:07.934Z,95.50
2023-03-12T02:39:37.412Z,95.50
2023-03-12T02:42:07.613Z,95.60
2023-03-12T02:44:37.323Z,95.50
2023-03-12T02:47:06.749Z,95.50
2023-03-12T02:49:36.778Z,95.80
2023-03-12T02:52:06.292Z,95.50
2023-03-12T02:54:34.688Z,95.60
2023-03-12T02:57:03.073Z,95.60
2023-03-12T02:59:35.149Z,95.70
2023-03-12T03:02:06.982Z,95.60
2023-03-12T03:04:35.909Z,95.70
2023-03-12T03:07:04.504Z,95.70
2023-03-12T03:09:32.963Z,95.70
2023-03-12T03:12:01.515Z,95.70
2023-03-12T03:14:34.194Z,95.70
2023-03-12T03:17:02.593Z,95.80
2023-03-12T03:19:30.969Z,95.70
2023-03-12T03:21:59.495Z,95.70
2023-03-12T03:24:28.076Z,95.70
2023-03-12T03:26:56.461Z,95.70
2023-03-12T03:29:25.010Z,95.80
2023-03-12T03:31:54.775Z,95.70
2023-03-12T03:34:23.218Z,95.80
2023-03-12T03:36:51.791Z,95.80
2023-03-12T03:39:20.264Z,95.70
2023-03-12T03:41:49.138Z,95.80
2023-03-12T03:44:22.269Z,95.70
2023-03-12T03:46:53.528Z,95.80
2023-03-12T03:49:23.866Z,95.80
2023-03-12T03:51:52.704Z,96.20
2023-03-12T03:54:29.642Z,95.90
2023-03-12T03:56:58.113Z,96.20
2023-03-12T03:59:26.560Z,95.90
2023-03-12T04:01:55.931Z,95.80
2023-03-12T04:04:26.278Z,95.90
2023-03-12T04:06:54.722Z,95.90
2023-03-12T04:09:23.819Z,95.80
2023-03-12T04:11:52.195Z,95.90
2023-03-12T04:14:21.129Z,95.80
2023-03-12T04:16:49.556Z,95.90
2023-03-12T04:19:18.075Z,96.00
2023-03-12T04:21:47.790Z,96.00
2023-03-12T04:24:20.344Z,96.00
2023-03-12T04:26:51.652Z,96.00
2023-03-12T04:29:20.917Z,96.00
2023-03-12T04:31:49.341Z,96.00
2023-03-12T04:34:17.828Z,95.80
2023-03-12T04:36:50.255Z,95.60
2023-03-12T04:39:20.247Z,96.00
2023-03-12T04:41:51.070Z,96.10
2023-03-12T04:44:19.515Z,95.80
2023-03-12T04:46:48.011Z,95.80
2023-03-12T04:49:20.311Z,95.80
2023-03-12T04:51:50.099Z,95.90
2023-03-12T04:54:21.062Z,95.80
2023-03-12T04:56:49.932Z,96.40
2023-03-12T04:59:18.713Z,96.00
2023-03-12T05:01:47.712Z,96.00
2023-03-12T05:04:21.515Z,95.70
2023-03-12T05:06:52.663Z,95.80
2023-03-12T05:09:21.040Z,95.80
2023-03-12T05:11:49.745Z,95.90
2023-03-12T05:14:21.325Z,96.00
2023-03-12T05:16:50.631Z,96.00
2023-03-12T05:19:19.116Z,95.80
2023-03-12T05:21:47.590Z,96.00
2023-03-12T05:24:19.012Z,96.20
2023-03-12T05:26:47.298Z,95.90
2023-03-12T05:29:19.044Z,96.00
2023-03-12T05:31:47.550Z,96.00
2023-03-12T05:34:16.315Z,96.00
2023-03-12T05:36:46.737Z,96.00
2023-03-12T05:39:20.706Z,96.20
2023-03-12T05:41:49.599Z,96.00
2023-03-12T05:44:20.682Z,96.00
2023-03-12T05:46:54.222Z,96.10
2023-03-12T05:49:25.817Z,96.20
2023-03-12T05:51:55.822Z,96.10
2023-03-12T05:54:26.934Z,96.00
2023-03-12T05:56:56.093Z,96.10
2023-03-12T05:59:26.422Z,96.00
2023-03-12T06:01:56.002Z,96.10
2023-03-12T06:04:24.518Z,96.30
2023-03-12T06:06:54.352Z,96.00
2023-03-12T06:09:23.312Z,96.00
2023-03-12T06:11:53.084Z,96.10
2023-03-12T06:14:21.535Z,96.00
2023-03-12T06:16:51.014Z,96.20
2023-03-12T06:19:19.755Z,96.50
2023-03-12T06:21:50.436Z,96.00
2023-03-12T06:24:18.905Z,96.20
2023-03-12T06:26:56.630Z,96.20
2023-03-12T06:29:25.007Z,96.30
2023-03-12T06:31:53.437Z,96.30
2023-03-12T06:34:21.799Z,96.40
2023-03-12T06:36:50.153Z,96.30
2023-03-12T06:39:18.497Z,96.30
2023-03-12T06:41:46.836Z,96.30
2023-03-12T06:44:16.503Z,96.30
2023-03-12T06:46:45.284Z,96.40
2023-03-12T06:49:13.723Z,96.60
2023-03-12T06:51:42.061Z,96.70
2023-03-12T06:54:10.431Z,96.60
2023-03-12T06:56:39.450Z,96.40
2023-03-12T06:59:08.144Z,96.50
2023-03-12T07:01:37.822Z,96.70
2023-03-12T07:04:06.228Z,96.70
2023-03-12T07:06:34.604Z,96.70
2023-03-12T07:09:02.909Z,96.80
2023-03-12T07:11:31.277Z,96.80
2023-03-12T07:13:59.581Z,96.70
2023-03-12T07:16:28.103Z,96.90
2023-03-12T07:18:57.850Z,97.00
2023-03-12T07:21:27.416Z,96.90
2023-03-12T07:23:55.724Z,97.00
2023-03-12T07:26:24.235Z,97.00
2023-03-12T07:28:55.839Z,97.60
2023-03-12T07:31:24.193Z,97.40
2023-03-12T07:33:52.631Z,97.10
2023-03-12T07:36:22.496Z,97.20
2023-03-12T07:38:52.260Z,97.30
2023-03-12T07:41:20.640Z,97.30
2023-03-12T07:43:49.482Z,97.30
2023-03-12T07:46:18.062Z,97.30
2023-03-12T07:48:46.468Z,97.70
2023-03-12T07:51:14.844Z,97.40
2023-03-12T07:53:44.543Z,97.30
2023-03-12T07:56:13.018Z,97.30
2023-03-12T07:58:41.672Z,97.30
2023-03-12T08:01:10.812Z,97.50
2023-03-12T08:03:39.663Z,97.50
2023-03-12T08:06:08.984Z,97.30
2023-03-12T08:08:38.410Z,97.50
2023-03-12T08:11:11.280Z,97.50
2023-03-12T08:13:39.907Z,97.40
2023-03-12T08:16:09.663Z,97.00
2023-03-12T08:18:38.022Z,97.60
2023-03-12T08:21:06.933Z,97.80
2023-03-12T08:23:35.680Z,97.90
2023-03-12T08:26:07.132Z,97.60
2023-03-12T08:28:37.092Z,97.90
2023-03-12T08:31:06.133Z,97.90
2023-03-12T08:33:34.555Z,98.10
2023-03-12T08:36:03.062Z,97.80
2023-03-12T08:38:34.435Z,98.00
2023-03-12T08:41:03.485Z,97.80
2023-03-12T08:43:35.852Z,98.10
2023-03-12T08:46:06.348Z,98.30
2023-03-12T08:48:35.948Z,98.40
2023-03-12T08:51:07.692Z,98.00
2023-03-12T08:53:37.727Z,98.30
2023-03-12T08:56:07.825Z,98.60
2023-03-12T08:58:36.240Z,98.60
2023-03-12T09:01:12.888Z,98.30
2023-03-12T09:03:42.498Z,98.90
2023-03-12T09:06:16.873Z,98.30
2023-03-12T09:08:46.407Z,98.90
2023-03-12T09:11:16.661Z,98.80
2023-03-12T09:16:35.566Z,98.60
2023-03-12T09:19:04.246Z,98.60
2023-03-12T09:21:32.760Z,98.90
2023-03-12T09:24:01.436Z,98.80
2023-03-12T09:26:30.032Z,98.60
2023-03-12T09:28:59.278Z,98.90
2023-03-12T09:31:28.188Z,98.90
2023-03-12T09:33:58.144Z,98.90
2023-03-12T09:36:26.714Z,98.80
2023-03-12T09:38:56.004Z,99.20
2023-03-12T09:41:28.836Z,99.20
2023-03-12T09:44:05.842Z,99.60
2023-03-12T09:46:41.355Z,99.70
2023-03-12T09:49:20.867Z,99.60
2023-03-12T09:51:55.148Z,99.90
2023-03-12T09:54:30.966Z,99.90
2023-03-12T09:57:05.558Z,99.90
2023-03-12T09:59:35.517Z,99.90
2023-03-12T10:02:26.020Z,99.90
2023-03-12T10:05:00.547Z,99.90
2023-03-12T10:07:36.217Z,99.90
2023-03-12T10:10:29.760Z,99.90
2023-03-12T10:13:17.117Z,99.90
2023-03-12T10:16:02.902Z,99.90
2023-03-12T10:18:51.113Z,99.90
2023-03-12T10:21:28.337Z,99.90
2023-03-12T10:24:18.134Z,99.90
2023-03-12T10:26:51.696Z,99.90
2023-03-12T10:29:24.712Z,99.90
2023-03-12T10:31:57.913Z,99.90
2023-03-12T10:34:33.308Z,99.90
2023-03-12T10:37:15.686Z,99.90
2023-03-12T10:39:44.124Z,99.90
2023-03-12T10:42:17.796Z,99.90
2023-03-12T10:44:50.262Z,99.90
2023-03-12T10:47:31.909Z,99.90
2023-03-12T10:50:16.755Z,99.90
2023-03-12T10:52:48.303Z,99.90
2023-03-12T10:55:24.773Z,99.90
2023-03-12T10:57:53.831Z,99.90
2023-03-12T11:00:25.287Z,99.90
2023-03-12T11:03:00.412Z,99.90
2023-03-12T11:05:32.122Z,99.90
2023-03-12T11:08:03.398Z,99.90
2023-03-12T11:10:44.559Z,99.90
2023-03-12T11:13:32.169Z,99.90
2023-03-12T11:16:02.445Z,99.90
2023-03-12T11:18:34.460Z,99.90
2023-03-12T11:21:19.319Z,99.90
2023-03-12T11:24:07.651Z,99.90
2023-03-12T11:26:49.592Z,99.90
2023-03-12T11:29:29.713Z,99.90
2023-03-12T11:32:04.148Z,99.90
2023-03-12T11:34:35.733Z,99.90
2023-03-12T11:37:12.837Z,99.90
2023-03-12T11:40:11.045Z,99.90
2023-03-12T11:42:58.351Z,99.90
2023-03-12T11:45:37.947Z,99.90
2023-03-12T11:48:18.921Z,99.90
2023-03-12T11:51:01.988Z,99.90
2023-03-12T11:53:55.476Z,99.90
2023-03-12T11:56:31.147Z,99.90
2023-03-12T11:59:15.356Z,99.90
2023-03-12T12:01:59.410Z,99.90
2023-03-12T12:05:10.255Z,99.90
2023-03-12T12:07:59.467Z,99.90
2023-03-12T12:10:34.299Z,99.90
2023-03-12T12:13:12.611Z,99.90
2023-03-12T12:15:51.975Z,99.90
2023-03-12T12:18:52.309Z,99.90
2023-03-12T12:21:48.118Z,99.90
2023-03-12T12:24:33.449Z,99.90
2023-03-12T12:27:16.766Z,99.90
2023-03-12T12:30:05.989Z,99.90
2023-03-12T12:32:56.051Z,99.90
2023-03-12T12:35:34.860Z,99.90
2023-03-12T12:38:09.331Z,99.90
2023-03-12T12:40:42.172Z,99.90
2023-03-12T12:43:28.153Z,99.90
2023-03-12T12:46:02.656Z,99.90
2023-03-12T12:48:36.409Z,99.90
2023-03-12T12:51:08.850Z,99.90
2023-03-12T12:53:47.941Z,99.90
2023-03-12T12:56:28.443Z,99.90
2023-03-12T12:59:21.453Z,99.90
2023-03-12T13:01:53.600Z,99.90
2023-03-12T13:04:27.461Z,99.90
2023-03-12T13:07:03.151Z,99.90
2023-03-12T13:09:41.437Z,99.90
2023-03-12T13:12:16.909Z,99.90
2023-03-12T13:14:47.028Z,99.90
2023-03-12T13:17:30.166Z,99.90
2023-03-12T13:20:16.211Z,99.90
2023-03-12T13:23:05.356Z,99.90
2023-03-12T13:25:50.638Z,99.90
2023-03-12T13:28:35.582Z,99.90
2023-03-12T13:31:36.222Z,99.90
2023-03-12T13:34:45.890Z,99.90
2023-03-12T13:37:56.310Z,99.90
2023-03-12T13:40:55.546Z,99.90
2023-03-12T13:43:53.219Z,99.90
2023-03-12T13:46:43.731Z,99.90
2023-03-12T13:49:19.118Z,99.90
2023-03-12T13:52:19.520Z,99.90
2023-03-12T13:54:51.559Z,99.90
2023-03-12T13:57:32.040Z,99.90
2023-03-12T14:00:01.383Z,99.90
2023-03-12T14:02:40.943Z,99.90
2023-03-12T14:05:14.972Z,99.90
2023-03-12T14:07:59.061Z,99.90
2023-03-12T14:11:02.553Z,99.90
2023-03-12T14:13:51.985Z,99.90
2023-03-12T14:16:27.509Z,99.90
2023-03-12T14:18:56.336Z,99.90
2023-03-12T14:21:34.583Z,99.90
2023-03-12T14:24:04.989Z,99.90
2023-03-12T14:26:36.825Z,99.90
2023-03-12T14:29:11.598Z,99.90
2023-03-12T14:31:41.314Z,99.90
2023-03-12T14:34:17.540Z,99.90
2023-03-12T14:36:57.176Z,99.90
2023-03-12T14:39:31.966Z,99.90
2023-03-12T14:42:05.954Z,99.90
2023-03-12T14:44:37.448Z,99.90
2023-03-12T14:47:10.217Z,99.90
2023-03-12T14:49:42.911Z,99.90
2023-03-12T14:52:15.576Z,99.90
2023-03-12T14:54:56.457Z,99.90
2023-03-12T14:57:25.659Z,99.90
2023-03-12T14:59:56.373Z,99.90
2023-03-12T15:02:25.753Z,99.70
2023-03-12T15:04:58.183Z,99.70
2023-03-12T15:07:34.888Z,99.60
2023-03-12T15:10:08.098Z,99.50
2023-03-12T15:12:38.960Z,99.80
2023-03-12T15:15:11.281Z,99.50
2023-03-12T15:17:39.896Z,99.40
2023-03-12T15:20:16.557Z,99.40
2023-03-12T15:22:46.777Z,99.50
2023-03-12T15:25:26.889Z,99.40
2023-03-12T15:28:26.357Z,99.40
2023-03-12T15:31:10.214Z,99.40
2023-03-12T15:33:38.772Z,99.40
2023-03-12T15:36:21.800Z,99.30
2023-03-12T15:38:54.998Z,99.30
2023-03-12T15:41:28.513Z,99.30
2023-03-12T15:43:58.929Z,99.30
2023-03-12T15:46:28.712Z,99.30
2023-03-12T15:48:59.754Z,99.30
2023-03-12T15:51:33.576Z,99.20
2023-03-12T15:54:07.598Z,99.20
2023-03-12T15:56:37.152Z,99.20
2023-03-12T15:59:21.959Z,99.20
2023-03-12T16:01:53.155Z,99.20
2023-03-12T16:04:22.887Z,99.10
2023-03-12T16:06:53.481Z,99.20
2023-03-12T16:09:27.121Z,99.10
2023-03-12T16:11:56.789Z,99.10
2023-03-12T16:14:28.951Z,99.00
2023-03-12T16:16:57.351Z,99.10
2023-03-12T16:19:29.841Z,99.00
2023-03-12T16:21:58.260Z,99.00
2023-03-12T16:24:27.994Z,99.00
2023-03-12T16:26:59.043Z,98.90
2023-03-12T16:29:33.952Z,98.90
2023-03-12T16:32:02.931Z,98.90
2023-03-12T16:34:31.229Z,98.90
2023-03-12T16:37:00.060Z,98.80
2023-03-12T16:39:33.037Z,98.80
2023-03-12T16:42:02.766Z,99.10
2023-03-12T16:44:35.644Z,98.70
2023-03-12T16:47:04.080Z,98.80
2023-03-12T16:49:32.419Z,98.70
2023-03-12T16:52:00.726Z,98.80
2023-03-12T16:54:30.386Z,98.70
2023-03-12T16:56:59.206Z,98.70
2023-03-12T16:59:31.816Z,98.70
2023-03-12T17:02:00.297Z,98.80
2023-03-12T17:04:28.705Z,98.70
2023-03-12T17:06:57.581Z,98.60
2023-03-12T17:09:26.123Z,98.60
2023-03-12T17:11:55.842Z,98.60
2023-03-12T17:14:24.849Z,99.00
2023-03-12T17:16:53.188Z,98.60
2023-03-12T17:19:21.727Z,98.60
2023-03-12T17:21:50.719Z,98.60
2023-03-12T17:24:19.109Z,98.60
2023-03-12T17:26:48.822Z,98.60
2023-03-12T17:29:18.529Z,98.60
2023-03-12T17:31:46.864Z,98.60
2023-03-12T17:34:17.371Z,98.50
2023-03-12T17:36:45.887Z,98.50
2023-03-12T17:39:14.281Z,98.50
2023-03-12T17:41:42.699Z,98.40
2023-03-12T17:44:11.880Z,98.40
2023-03-12T17:46:52.974Z,98.40
2023-03-12T17:49:27.146Z,98.70
2023-03-12T17:51:55.554Z,98.40
2023-03-12T17:54:24.008Z,98.30
2023-03-12T17:56:52.335Z,98.30
2023-03-12T17:59:20.785Z,98.30
2023-03-12T18:01:51.086Z,98.30
2023-03-12T18:04:19.914Z,98.20
2023-03-12T18:06:48.644Z,98.20
2023-03-12T18:09:17.188Z,98.20
2023-03-12T18:11:45.538Z,98.10
2023-03-12T18:14:14.281Z,98.20
2023-03-12T18:16:42.939Z,98.20
2023-03-12T18:19:12.674Z,98.10
2023-03-12T18:21:41.274Z,98.10
2023-03-12T18:24:14.321Z,98.10
2023-03-12T18:26:43.232Z,98.20
2023-03-12T18:29:11.824Z,98.10
2023-03-12T18:31:40.410Z,98.10
2023-03-12T18:34:09.102Z,98.00
2023-03-12T18:36:39.096Z,98.00
2023-03-12T18:39:09.783Z,98.00
2023-03-12T18:41:40.767Z,98.10
2023-03-12T18:44:10.432Z,98.10
2023-03-12T18:46:38.781Z,98.10
2023-03-12T18:49:09.052Z,98.10
2023-03-12T18:51:38.979Z,98.10
2023-03-12T18:54:07.519Z,98.10
2023-03-12T18:56:39.208Z,98.00
2023-03-12T18:59:07.632Z,98.00
2023-03-12T19:01:36.165Z,98.00
2023-03-12T19:04:04.761Z,98.00
2023-03-12T19:06:48.124Z,98.00
2023-03-12T19:09:19.775Z,97.90
2023-03-12T19:11:48.632Z,97.90
2023-03-12T19:14:17.027Z,98.00
2023-03-12T19:16:45.422Z,97.90
2023-03-12T19:19:13.733Z,98.00
2023-03-12T19:21:42.085Z,97.90
2023-03-12T19:24:10.483Z,97.90
2023-03-12T19:26:40.186Z,97.90
2023-03-12T19:29:08.539Z,97.90
2023-03-12T19:31:37.029Z,97.90
2023-03-12T19:34:05.398Z,97.90
2023-03-12T19:36:33.690Z,97.90
2023-03-12T19:39:04.449Z,97.90
2023-03-12T19:41:34.995Z,97.90
2023-03-12T19:44:04.804Z,97.90
2023-03-12T19:46:33.184Z,97.80
2023-03-12T19:49:01.517Z,97.90
2023-03-12T19:51:29.859Z,97.90
2023-03-12T19:53:58.199Z,97.80
2023-03-12T19:56:27.463Z,97.80
2023-03-12T19:58:55.809Z,97.90
2023-03-12T20:01:25.487Z,97.90
2023-03-12T20:03:53.840Z,98.20
2023-03-12T20:06:22.252Z,97.90
2023-03-12T20:08:50.602Z,97.90
2023-03-12T20:11:18.922Z,97.90
2023-03-12T20:13:47.244Z,98.20
2023-03-12T20:16:16.917Z,97.90
2023-03-12T20:18:46.752Z,97.90
2023-03-12T20:21:15.035Z,97.90
2023-03-12T20:23:43.375Z,97.90
2023-03-12T20:26:12.186Z,97.90
2023-03-12T20:28:40.541Z,97.90
2023-03-12T20:31:10.704Z,97.90
2023-03-12T20:33:39.432Z,97.90
2023-03-12T20:36:12.008Z,97.90
2023-03-12T20:38:40.741Z,97.90
2023-03-12T20:41:14.202Z,98.30
2023-03-12T20:43:43.262Z,97.90
2023-03-12T20:46:12.814Z,97.90
2023-03-12T20:48:41.493Z,97.90
2023-03-12T20:51:11.201Z,97.90
2023-03-12T20:53:39.536Z,97.90
2023-03-12T20:56:09.080Z,97.90
2023-03-12T20:58:37.497Z,97.90
2023-03-12T21:01:07.203Z,98.30
2023-03-12T21:03:35.628Z,98.00
2023-03-12T21:06:05.306Z,97.90
2023-03-12T21:08:35.453Z,98.00
2023-03-12T21:11:07.304Z,98.00
2023-03-12T21:13:35.927Z,98.00
2023-03-12T21:16:06.736Z,98.30
2023-03-12T21:18:35.225Z,98.00
2023-03-12T21:21:04.360Z,98.00
2023-03-12T21:23:34.768Z,98.10
2023-03-12T21:26:08.962Z,98.10
2023-03-12T21:28:37.803Z,98.10
2023-03-12T21:31:07.810Z,98.10
2023-03-12T21:33:36.255Z,98.10
2023-03-12T21:36:06.663Z,98.10
2023-03-12T21:38:37.854Z,98.10
2023-03-12T21:41:08.621Z,98.10
2023-03-12T21:43:37.366Z,98.10
2023-03-12T21:46:07.065Z,98.20
2023-03-12T21:48:35.897Z,98.20
2023-03-12T21:51:05.826Z,98.20
2023-03-12T21:53:35.977Z,98.10
2023-03-12T21:56:07.460Z,98.10
2023-03-12T21:58:36.742Z,98.10
2023-03-12T22:01:08.238Z,98.10
2023-03-12T22:03:37.652Z,98.10
2023-03-12T22:06:07.839Z,98.10
2023-03-12T22:08:39.084Z,98.10
2023-03-12T22:11:08.788Z,98.10
2023-03-12T22:13:38.665Z,98.40
2023-03-12T22:16:12.301Z,98.10
2023-03-12T22:18:42.901Z,98.10
2023-03-12T22:21:16.752Z,98.00
2023-03-12T22:23:48.321Z,98.00
2023-03-12T22:26:19.519Z,97.90
2023-03-12T22:28:51.471Z,98.30
2023-03-12T22:31:22.229Z,97.90
2023-03-12T22:33:50.822Z,98.00
2023-03-12T22:36:20.482Z,97.90
2023-03-12T22:38:50.937Z,98.00
2023-03-12T22:41:21.943Z,97.90
2023-03-12T22:43:53.118Z,97.90
2023-03-12T22:46:23.795Z,97.90
2023-03-12T22:48:56.091Z,97.90
2023-03-12T22:51:25.289Z,97.90
2023-03-12T22:53:55.209Z,97.90
2023-03-12T22:56:24.161Z,97.90
2023-03-12T22:58:52.642Z,97.90
2023-03-12T23:01:23.118Z,97.90
2023-03-12T23:03:52.589Z,98.20
2023-03-12T23:06:23.255Z,97.90
2023-03-12T23:08:52.452Z,97.90
2023-03-12T23:11:25.157Z,97.90
2023-03-12T23:13:54.498Z,97.90
2023-03-12T23:16:26.744Z,98.00
2023-03-12T23:18:56.328Z,97.90
2023-03-12T23:21:26.214Z,97.90
2023-03-12T23:23:55.242Z,98.00
2023-03-12T23:26:27.513Z,98.00
2023-03-12T23:28:56.342Z,98.00
2023-03-12T23:31:27.099Z,97.90
2023-03-12T23:33:56.356Z,98.00
2023-03-12T23:36:25.730Z,98.00
2023-03-12T23:38:54.234Z,98.00
2023-03-12T23:41:26.795Z,97.90
2023-03-12T23:43:55.156Z,97.90
2023-03-12T23:46:24.281Z,97.90
2023-03-12T23:48:52.709Z,98.00
2023-03-12T23:51:24.528Z,97.90
2023-03-12T23:53:57.366Z,98.00
2023-03-12T23:56:31.822Z,97.90
2023-03-12T23:59:00.275Z,97.90
